sensor_id;sensor_type;location;lat;lon;timestamp;P1;durP1;ratioP1;P2;durP2;ratioP2
77191;SDS011;66172;48.526;8.078;2024-03-23T00:52:02;5.07;;;1.80;;
77191;SDS011;66172;48.526;8.078;2024-03-23T00:54:29;7.17;;;1.67;;
77191;SDS011;66172;48.526;8.078;2024-03-23T00:56:54;6.30;;;1.70;;
77191;SDS011;66172;48.526;8.078;2024-03-23T00:59:20;5.65;;;2.05;;
77191;SDS011;66172;48.526;8.078;2024-03-23T01:01:47;6.65;;;1.45;;
77191;SDS011;66172;48.526;8.078;2024-03-23T01:04:13;4.27;;;1.53;;
77191;SDS011;66172;48.526;8.078;2024-03-23T01:06:39;5.55;;;1.92;;
77191;SDS011;66172;48.526;8.078;2024-03-23T01:09:05;6.05;;;1.60;;
77191;SDS011;66172;48.526;8.078;2024-03-23T01:11:31;5.22;;;1.90;;
77191;SDS011;66172;48.526;8.078;2024-03-23T01:13:57;6.87;;;2.00;;
77191;SDS011;66172;48.526;8.078;2024-03-23T01:16:23;6.10;;;1.83;;
77191;SDS011;66172;48.526;8.078;2024-03-23T01:18:49;5.38;;;1.75;;
77191;SDS011;66172;48.526;8.078;2024-03-23T01:21:15;5.63;;;1.60;;
77191;SDS011;66172;48.526;8.078;2024-03-23T01:23:41;7.05;;;2.03;;
77191;SDS011;66172;48.526;8.078;2024-03-23T01:26:07;5.60;;;1.80;;
77191;SDS011;66172;48.526;8.078;2024-03-23T01:28:33;5.03;;;1.80;;
77191;SDS011;66172;48.526;8.078;2024-03-23T01:30:59;7.20;;;1.90;;
77191;SDS011;66172;48.526;8.078;2024-03-23T01:33:25;4.78;;;1.60;;
77191;SDS011;66172;48.526;8.078;2024-03-23T01:35:51;7.55;;;1.80;;
77191;SDS011;66172;48.526;8.078;2024-03-23T01:38:17;5.20;;;1.70;;
77191;SDS011;66172;48.526;8.078;2024-03-23T01:40:43;5.95;;;1.88;;
77191;SDS011;66172;48.526;8.078;2024-03-23T01:43:08;5.93;;;1.60;;
77191;SDS011;66172;48.526;8.078;2024-03-23T01:45:34;8.85;;;2.65;;
77191;SDS011;66172;48.526;8.078;2024-03-23T01:48:00;4.73;;;1.50;;
77191;SDS011;66172;48.526;8.078;2024-03-23T01:50:27;5.78;;;1.67;;
77191;SDS011;66172;48.526;8.078;2024-03-23T01:52:53;4.60;;;1.50;;
77191;SDS011;66172;48.526;8.078;2024-03-23T01:55:19;4.88;;;1.42;;
77191;SDS011;66172;48.526;8.078;2024-03-23T01:57:46;4.78;;;1.70;;
77191;SDS011;66172;48.526;8.078;2024-03-23T02:00:12;5.93;;;1.63;;
77191;SDS011;66172;48.526;8.078;2024-03-23T02:02:45;6.47;;;1.80;;
77191;SDS011;66172;48.526;8.078;2024-03-23T02:05:11;5.13;;;1.67;;
77191;SDS011;66172;48.526;8.078;2024-03-23T02:07:38;4.70;;;1.60;;
77191;SDS011;66172;48.526;8.078;2024-03-23T02:10:08;5.00;;;1.67;;
77191;SDS011;66172;48.526;8.078;2024-03-23T02:12:35;5.27;;;1.70;;
77191;SDS011;66172;48.526;8.078;2024-03-23T02:15:02;6.13;;;1.73;;
77191;SDS011;66172;48.526;8.078;2024-03-23T02:17:30;6.93;;;2.10;;
77191;SDS011;66172;48.526;8.078;2024-03-23T02:19:56;5.90;;;2.00;;
77191;SDS011;66172;48.526;8.078;2024-03-23T02:22:22;5.80;;;2.17;;
77191;SDS011;66172;48.526;8.078;2024-03-23T02:24:48;4.88;;;1.90;;
77191;SDS011;66172;48.526;8.078;2024-03-23T02:27:14;5.25;;;1.98;;
77191;SDS011;66172;48.526;8.078;2024-03-23T02:29:40;5.78;;;1.90;;
77191;SDS011;66172;48.526;8.078;2024-03-23T02:32:06;6.67;;;1.83;;
77191;SDS011;66172;48.526;8.078;2024-03-23T02:34:35;5.18;;;1.75;;
77191;SDS011;66172;48.526;8.078;2024-03-23T02:37:01;7.38;;;1.88;;
77191;SDS011;66172;48.526;8.078;2024-03-23T02:39:27;5.68;;;2.00;;
77191;SDS011;66172;48.526;8.078;2024-03-23T02:41:53;4.70;;;1.73;;
77191;SDS011;66172;48.526;8.078;2024-03-23T02:44:19;6.97;;;2.00;;
77191;SDS011;66172;48.526;8.078;2024-03-23T02:46:45;5.90;;;1.80;;
77191;SDS011;66172;48.526;8.078;2024-03-23T02:49:11;6.43;;;2.05;;
77191;SDS011;66172;48.526;8.078;2024-03-23T02:51:36;5.90;;;1.60;;
77191;SDS011;66172;48.526;8.078;2024-03-23T02:54:02;8.35;;;2.15;;
77191;SDS011;66172;48.526;8.078;2024-03-23T02:56:28;5.20;;;2.05;;
77191;SDS011;66172;48.526;8.078;2024-03-23T02:58:54;5.93;;;2.00;;
77191;SDS011;66172;48.526;8.078;2024-03-23T03:01:20;5.05;;;1.75;;
77191;SDS011;66172;48.526;8.078;2024-03-23T03:03:46;4.78;;;1.70;;
77191;SDS011;66172;48.526;8.078;2024-03-23T03:06:12;5.13;;;1.93;;
77191;SDS011;66172;48.526;8.078;2024-03-23T03:08:48;5.25;;;1.60;;
77191;SDS011;66172;48.526;8.078;2024-03-23T03:11:14;5.95;;;2.13;;
77191;SDS011;66172;48.526;8.078;2024-03-23T03:13:40;5.05;;;2.00;;
77191;SDS011;66172;48.526;8.078;2024-03-23T03:16:12;5.07;;;1.53;;
77191;SDS011;66172;48.526;8.078;2024-03-23T03:18:38;6.38;;;1.83;;
77191;SDS011;66172;48.526;8.078;2024-03-23T03:21:06;6.22;;;1.80;;
77191;SDS011;66172;48.526;8.078;2024-03-23T03:23:36;6.50;;;1.80;;
77191;SDS011;66172;48.526;8.078;2024-03-23T03:26:03;6.47;;;2.05;;
77191;SDS011;66172;48.526;8.078;2024-03-23T03:28:33;6.87;;;2.37;;
77191;SDS011;66172;48.526;8.078;2024-03-23T03:31:00;6.82;;;2.15;;
77191;SDS011;66172;48.526;8.078;2024-03-23T03:33:28;7.05;;;2.50;;
77191;SDS011;66172;48.526;8.078;2024-03-23T03:35:54;7.45;;;3.30;;
77191;SDS011;66172;48.526;8.078;2024-03-23T03:38:21;5.43;;;1.95;;
77191;SDS011;66172;48.526;8.078;2024-03-23T03:40:47;6.87;;;2.10;;
77191;SDS011;66172;48.526;8.078;2024-03-23T03:43:13;8.00;;;2.65;;
77191;SDS011;66172;48.526;8.078;2024-03-23T03:45:39;6.32;;;2.00;;
77191;SDS011;66172;48.526;8.078;2024-03-23T03:48:05;5.93;;;1.90;;
77191;SDS011;66172;48.526;8.078;2024-03-23T03:50:32;5.10;;;1.80;;
77191;SDS011;66172;48.526;8.078;2024-03-23T03:52:58;5.95;;;1.75;;
77191;SDS011;66172;48.526;8.078;2024-03-23T03:55:23;5.15;;;1.90;;
77191;SDS011;66172;48.526;8.078;2024-03-23T03:57:49;9.73;;;2.70;;
77191;SDS011;66172;48.526;8.078;2024-03-23T04:00:15;5.53;;;2.60;;
77191;SDS011;66172;48.526;8.078;2024-03-23T04:02:41;6.90;;;2.67;;
77191;SDS011;66172;48.526;8.078;2024-03-23T04:05:07;7.05;;;2.85;;
77191;SDS011;66172;48.526;8.078;2024-03-23T04:07:33;7.93;;;3.33;;
77191;SDS011;66172;48.526;8.078;2024-03-23T04:09:59;7.90;;;3.00;;
77191;SDS011;66172;48.526;8.078;2024-03-23T04:12:25;7.88;;;3.80;;
77191;SDS011;66172;48.526;8.078;2024-03-23T04:14:51;9.75;;;3.55;;
77191;SDS011;66172;48.526;8.078;2024-03-23T04:17:17;9.17;;;4.70;;
77191;SDS011;66172;48.526;8.078;2024-03-23T04:19:44;11.25;;;5.68;;
77191;SDS011;66172;48.526;8.078;2024-03-23T04:22:10;11.35;;;5.90;;
77191;SDS011;66172;48.526;8.078;2024-03-23T04:24:35;12.75;;;6.60;;
77191;SDS011;66172;48.526;8.078;2024-03-23T04:27:01;12.90;;;6.70;;
77191;SDS011;66172;48.526;8.078;2024-03-23T04:29:28;13.75;;;6.65;;
77191;SDS011;66172;48.526;8.078;2024-03-23T04:31:54;11.90;;;6.70;;
77191;SDS011;66172;48.526;8.078;2024-03-23T04:34:21;14.20;;;6.65;;
77191;SDS011;66172;48.526;8.078;2024-03-23T04:36:48;13.93;;;7.43;;
77191;SDS011;66172;48.526;8.078;2024-03-23T04:39:14;14.37;;;8.07;;
77191;SDS011;66172;48.526;8.078;2024-03-23T04:41:40;14.35;;;7.65;;
77191;SDS011;66172;48.526;8.078;2024-03-23T04:44:06;16.67;;;8.65;;
77191;SDS011;66172;48.526;8.078;2024-03-23T04:46:32;15.50;;;8.23;;
77191;SDS011;66172;48.526;8.078;2024-03-23T04:48:58;16.05;;;9.50;;
77191;SDS011;66172;48.526;8.078;2024-03-23T04:51:24;19.23;;;9.13;;
77191;SDS011;66172;48.526;8.078;2024-03-23T04:53:49;19.10;;;9.18;;
77191;SDS011;66172;48.526;8.078;2024-03-23T04:56:15;20.10;;;9.87;;
77191;SDS011;66172;48.526;8.078;2024-03-23T04:58:43;19.98;;;10.07;;
77191;SDS011;66172;48.526;8.078;2024-03-23T05:01:10;16.90;;;9.15;;
77191;SDS011;66172;48.526;8.078;2024-03-23T05:03:36;17.55;;;9.25;;
77191;SDS011;66172;48.526;8.078;2024-03-23T05:06:02;20.10;;;9.20;;
77191;SDS011;66172;48.526;8.078;2024-03-23T05:08:28;16.77;;;8.57;;
77191;SDS011;66172;48.526;8.078;2024-03-23T05:10:54;16.65;;;8.50;;
77191;SDS011;66172;48.526;8.078;2024-03-23T05:13:20;15.70;;;7.80;;
77191;SDS011;66172;48.526;8.078;2024-03-23T05:15:53;15.87;;;7.70;;
77191;SDS011;66172;48.526;8.078;2024-03-23T05:18:19;16.70;;;7.65;;
77191;SDS011;66172;48.526;8.078;2024-03-23T05:20:45;14.27;;;6.93;;
77191;SDS011;66172;48.526;8.078;2024-03-23T05:23:11;12.30;;;5.97;;
77191;SDS011;66172;48.526;8.078;2024-03-23T05:25:37;14.97;;;5.70;;
77191;SDS011;66172;48.526;8.078;2024-03-23T05:28:03;11.82;;;5.13;;
77191;SDS011;66172;48.526;8.078;2024-03-23T05:30:29;8.15;;;3.45;;
77191;SDS011;66172;48.526;8.078;2024-03-23T05:32:55;8.27;;;3.38;;
77191;SDS011;66172;48.526;8.078;2024-03-23T05:35:21;7.67;;;3.17;;
77191;SDS011;66172;48.526;8.078;2024-03-23T05:37:47;6.60;;;2.60;;
77191;SDS011;66172;48.526;8.078;2024-03-23T05:40:12;6.43;;;2.78;;
77191;SDS011;66172;48.526;8.078;2024-03-23T05:42:41;6.33;;;2.57;;
77191;SDS011;66172;48.526;8.078;2024-03-23T05:45:07;7.75;;;2.88;;
77191;SDS011;66172;48.526;8.078;2024-03-23T05:47:33;6.78;;;3.10;;
77191;SDS011;66172;48.526;8.078;2024-03-23T05:49:59;6.13;;;1.70;;
77191;SDS011;66172;48.526;8.078;2024-03-23T05:52:25;5.50;;;1.77;;
77191;SDS011;66172;48.526;8.078;2024-03-23T05:54:52;4.43;;;1.10;;
77191;SDS011;66172;48.526;8.078;2024-03-23T05:57:18;3.63;;;0.93;;
77191;SDS011;66172;48.526;8.078;2024-03-23T05:59:45;6.05;;;0.98;;
77191;SDS011;66172;48.526;8.078;2024-03-23T06:02:11;3.58;;;0.70;;
77191;SDS011;66172;48.526;8.078;2024-03-23T06:04:37;4.80;;;1.07;;
77191;SDS011;66172;48.526;8.078;2024-03-23T06:07:03;3.58;;;0.80;;
77191;SDS011;66172;48.526;8.078;2024-03-23T06:09:31;6.68;;;2.05;;
77191;SDS011;66172;48.526;8.078;2024-03-23T06:11:57;8.00;;;1.45;;
77191;SDS011;66172;48.526;8.078;2024-03-23T06:14:23;4.17;;;0.80;;
77191;SDS011;66172;48.526;8.078;2024-03-23T06:16:49;3.72;;;0.90;;
77191;SDS011;66172;48.526;8.078;2024-03-23T06:19:15;3.67;;;0.95;;
77191;SDS011;66172;48.526;8.078;2024-03-23T06:21:44;4.70;;;0.93;;
77191;SDS011;66172;48.526;8.078;2024-03-23T06:24:17;3.05;;;0.52;;
77191;SDS011;66172;48.526;8.078;2024-03-23T06:26:43;2.65;;;0.32;;
77191;SDS011;66172;48.526;8.078;2024-03-23T06:29:09;2.65;;;0.50;;
77191;SDS011;66172;48.526;8.078;2024-03-23T06:31:35;2.27;;;0.30;;
77191;SDS011;66172;48.526;8.078;2024-03-23T06:34:01;2.42;;;0.40;;
77191;SDS011;66172;48.526;8.078;2024-03-23T06:36:27;2.15;;;0.30;;
77191;SDS011;66172;48.526;8.078;2024-03-23T06:38:53;1.97;;;0.23;;
77191;SDS011;66172;48.526;8.078;2024-03-23T06:41:19;2.97;;;0.30;;
77191;SDS011;66172;48.526;8.078;2024-03-23T06:43:45;2.45;;;0.28;;
77191;SDS011;66172;48.526;8.078;2024-03-23T06:46:11;2.38;;;0.38;;
77191;SDS011;66172;48.526;8.078;2024-03-23T06:48:36;3.03;;;0.40;;
77191;SDS011;66172;48.526;8.078;2024-03-23T06:51:02;3.20;;;0.40;;
77191;SDS011;66172;48.526;8.078;2024-03-23T06:53:29;4.90;;;1.00;;
77191;SDS011;66172;48.526;8.078;2024-03-23T06:55:55;2.28;;;0.32;;
77191;SDS011;66172;48.526;8.078;2024-03-23T06:58:21;2.67;;;0.60;;
77191;SDS011;66172;48.526;8.078;2024-03-23T07:00:48;2.80;;;0.40;;
77191;SDS011;66172;48.526;8.078;2024-03-23T07:03:14;2.85;;;0.45;;
77191;SDS011;66172;48.526;8.078;2024-03-23T07:05:40;3.63;;;0.50;;
77191;SDS011;66172;48.526;8.078;2024-03-23T07:08:08;3.33;;;0.60;;
77191;SDS011;66172;48.526;8.078;2024-03-23T07:10:33;4.87;;;1.53;;
77191;SDS011;66172;48.526;8.078;2024-03-23T07:12:59;3.73;;;0.70;;
77191;SDS011;66172;48.526;8.078;2024-03-23T07:15:25;3.35;;;0.80;;
77191;SDS011;66172;48.526;8.078;2024-03-23T07:17:51;3.38;;;0.82;;
77191;SDS011;66172;48.526;8.078;2024-03-23T07:20:18;3.80;;;0.80;;
77191;SDS011;66172;48.526;8.078;2024-03-23T07:22:45;4.57;;;0.55;;
77191;SDS011;66172;48.526;8.078;2024-03-23T07:25:13;4.30;;;0.80;;
77191;SDS011;66172;48.526;8.078;2024-03-23T07:27:38;3.78;;;0.90;;
77191;SDS011;66172;48.526;8.078;2024-03-23T07:30:05;4.35;;;1.20;;
77191;SDS011;66172;48.526;8.078;2024-03-23T07:32:32;5.43;;;1.20;;
77191;SDS011;66172;48.526;8.078;2024-03-23T07:34:57;4.15;;;1.10;;
77191;SDS011;66172;48.526;8.078;2024-03-23T07:37:23;4.50;;;1.52;;
77191;SDS011;66172;48.526;8.078;2024-03-23T07:39:49;4.57;;;1.10;;
77191;SDS011;66172;48.526;8.078;2024-03-23T07:42:15;4.67;;;1.10;;
77191;SDS011;66172;48.526;8.078;2024-03-23T07:44:41;4.80;;;1.25;;
77191;SDS011;66172;48.526;8.078;2024-03-23T07:47:07;6.32;;;1.60;;
77191;SDS011;66172;48.526;8.078;2024-03-23T07:49:33;5.20;;;1.60;;
77191;SDS011;66172;48.526;8.078;2024-03-23T07:51:58;8.70;;;2.20;;
77191;SDS011;66172;48.526;8.078;2024-03-23T07:54:24;5.63;;;1.42;;
77191;SDS011;66172;48.526;8.078;2024-03-23T07:56:50;6.47;;;2.00;;
77191;SDS011;66172;48.526;8.078;2024-03-23T07:59:16;8.00;;;2.10;;
77191;SDS011;66172;48.526;8.078;2024-03-23T08:01:44;7.03;;;1.80;;
77191;SDS011;66172;48.526;8.078;2024-03-23T08:04:09;6.10;;;2.10;;
77191;SDS011;66172;48.526;8.078;2024-03-23T08:06:35;10.77;;;2.37;;
77191;SDS011;66172;48.526;8.078;2024-03-23T08:09:03;8.55;;;2.90;;
77191;SDS011;66172;48.526;8.078;2024-03-23T08:11:30;6.95;;;2.30;;
77191;SDS011;66172;48.526;8.078;2024-03-23T08:13:56;8.57;;;2.60;;
77191;SDS011;66172;48.526;8.078;2024-03-23T08:16:23;6.90;;;2.47;;
77191;SDS011;66172;48.526;8.078;2024-03-23T08:18:52;7.40;;;2.13;;
77191;SDS011;66172;48.526;8.078;2024-03-23T08:21:19;7.20;;;2.05;;
77191;SDS011;66172;48.526;8.078;2024-03-23T08:23:45;9.00;;;2.17;;
77191;SDS011;66172;48.526;8.078;2024-03-23T08:26:11;6.28;;;2.08;;
77191;SDS011;66172;48.526;8.078;2024-03-23T08:28:39;8.27;;;2.00;;
77191;SDS011;66172;48.526;8.078;2024-03-23T08:31:06;9.10;;;2.00;;
77191;SDS011;66172;48.526;8.078;2024-03-23T08:33:33;9.27;;;2.60;;
77191;SDS011;66172;48.526;8.078;2024-03-23T08:36:00;11.95;;;3.05;;
77191;SDS011;66172;48.526;8.078;2024-03-23T08:38:45;10.15;;;2.60;;
77191;SDS011;66172;48.526;8.078;2024-03-23T08:41:11;11.27;;;2.63;;
77191;SDS011;66172;48.526;8.078;2024-03-23T08:43:38;11.05;;;3.15;;
77191;SDS011;66172;48.526;8.078;2024-03-23T08:46:07;12.73;;;3.10;;
77191;SDS011;66172;48.526;8.078;2024-03-23T08:48:34;9.88;;;2.60;;
77191;SDS011;66172;48.526;8.078;2024-03-23T08:51:05;11.60;;;2.60;;
77191;SDS011;66172;48.526;8.078;2024-03-23T08:53:32;9.90;;;2.60;;
77191;SDS011;66172;48.526;8.078;2024-03-23T08:55:58;8.65;;;2.40;;
77191;SDS011;66172;48.526;8.078;2024-03-23T08:58:26;9.18;;;2.83;;
77191;SDS011;66172;48.526;8.078;2024-03-23T09:00:54;11.23;;;2.92;;
77191;SDS011;66172;48.526;8.078;2024-03-23T09:03:22;9.77;;;2.83;;
77191;SDS011;66172;48.526;8.078;2024-03-23T09:05:48;10.20;;;2.83;;
77191;SDS011;66172;48.526;8.078;2024-03-23T09:08:14;10.75;;;2.85;;
77191;SDS011;66172;48.526;8.078;2024-03-23T09:10:41;13.57;;;2.72;;
77191;SDS011;66172;48.526;8.078;2024-03-23T09:13:08;9.27;;;2.90;;
77191;SDS011;66172;48.526;8.078;2024-03-23T09:15:35;12.37;;;2.77;;
77191;SDS011;66172;48.526;8.078;2024-03-23T09:18:02;11.23;;;2.10;;
77191;SDS011;66172;48.526;8.078;2024-03-23T09:20:28;7.82;;;2.30;;
77191;SDS011;66172;48.526;8.078;2024-03-23T09:22:54;11.05;;;2.80;;
77191;SDS011;66172;48.526;8.078;2024-03-23T09:25:20;10.25;;;2.72;;
77191;SDS011;66172;48.526;8.078;2024-03-23T09:27:46;10.13;;;2.30;;
77191;SDS011;66172;48.526;8.078;2024-03-23T09:30:12;10.70;;;2.65;;
77191;SDS011;66172;48.526;8.078;2024-03-23T09:32:39;8.82;;;2.65;;
77191;SDS011;66172;48.526;8.078;2024-03-23T09:35:09;7.10;;;2.22;;
77191;SDS011;66172;48.526;8.078;2024-03-23T09:37:36;10.70;;;2.30;;
77191;SDS011;66172;48.526;8.078;2024-03-23T09:40:02;7.88;;;1.70;;
77191;SDS011;66172;48.526;8.078;2024-03-23T09:42:28;10.10;;;2.47;;
77191;SDS011;66172;48.526;8.078;2024-03-23T09:44:56;8.50;;;2.42;;
77191;SDS011;66172;48.526;8.078;2024-03-23T09:47:23;8.13;;;1.92;;
77191;SDS011;66172;48.526;8.078;2024-03-23T09:49:50;10.17;;;2.47;;
77191;SDS011;66172;48.526;8.078;2024-03-23T09:52:17;5.90;;;1.60;;
77191;SDS011;66172;48.526;8.078;2024-03-23T09:54:43;4.43;;;1.00;;
77191;SDS011;66172;48.526;8.078;2024-03-23T09:57:09;5.80;;;1.08;;
77191;SDS011;66172;48.526;8.078;2024-03-23T09:59:35;4.53;;;1.10;;
77191;SDS011;66172;48.526;8.078;2024-03-23T10:02:03;4.38;;;1.00;;
77191;SDS011;66172;48.526;8.078;2024-03-23T10:04:42;4.97;;;1.00;;
77191;SDS011;66172;48.526;8.078;2024-03-23T10:07:10;6.93;;;1.23;;
77191;SDS011;66172;48.526;8.078;2024-03-23T10:09:40;7.57;;;1.30;;
77191;SDS011;66172;48.526;8.078;2024-03-23T10:12:09;7.85;;;1.73;;
77191;SDS011;66172;48.526;8.078;2024-03-23T10:14:40;6.43;;;1.60;;
77191;SDS011;66172;48.526;8.078;2024-03-23T10:19:43;7.47;;;1.40;;
77191;SDS011;66172;48.526;8.078;2024-03-23T10:22:14;10.97;;;1.70;;
77191;SDS011;66172;48.526;8.078;2024-03-23T10:24:43;9.18;;;1.75;;
77191;SDS011;66172;48.526;8.078;2024-03-23T10:27:09;8.63;;;1.80;;
77191;SDS011;66172;48.526;8.078;2024-03-23T10:29:40;7.38;;;1.90;;
77191;SDS011;66172;48.526;8.078;2024-03-23T10:32:09;9.48;;;1.75;;
77191;SDS011;66172;48.526;8.078;2024-03-23T10:34:37;8.67;;;1.80;;
77191;SDS011;66172;48.526;8.078;2024-03-23T10:37:03;8.85;;;2.03;;
77191;SDS011;66172;48.526;8.078;2024-03-23T10:39:34;10.35;;;2.38;;
77191;SDS011;66172;48.526;8.078;2024-03-23T10:42:02;7.70;;;1.80;;
77191;SDS011;66172;48.526;8.078;2024-03-23T10:44:29;9.02;;;1.90;;
77191;SDS011;66172;48.526;8.078;2024-03-23T10:46:59;8.13;;;1.97;;
77191;SDS011;66172;48.526;8.078;2024-03-23T10:49:27;6.28;;;1.80;;
77191;SDS011;66172;48.526;8.078;2024-03-23T10:51:58;7.05;;;1.55;;
77191;SDS011;66172;48.526;8.078;2024-03-23T10:54:31;8.00;;;1.60;;
77191;SDS011;66172;48.526;8.078;2024-03-23T10:57:14;9.48;;;1.75;;
77191;SDS011;66172;48.526;8.078;2024-03-23T10:59:45;5.70;;;1.37;;
77191;SDS011;66172;48.526;8.078;2024-03-23T11:02:21;9.15;;;1.38;;
77191;SDS011;66172;48.526;8.078;2024-03-23T11:04:47;7.97;;;1.75;;
77191;SDS011;66172;48.526;8.078;2024-03-23T11:09:54;6.28;;;1.13;;
77191;SDS011;66172;48.526;8.078;2024-03-23T11:14:50;5.72;;;1.27;;
77191;SDS011;66172;48.526;8.078;2024-03-23T11:17:18;4.72;;;0.82;;
77191;SDS011;66172;48.526;8.078;2024-03-23T11:19:46;6.45;;;1.17;;
77191;SDS011;66172;48.526;8.078;2024-03-23T11:25:19;6.87;;;1.33;;
77191;SDS011;66172;48.526;8.078;2024-03-23T11:27:47;5.55;;;1.13;;
77191;SDS011;66172;48.526;8.078;2024-03-23T11:32:47;6.30;;;1.67;;
77191;SDS011;66172;48.526;8.078;2024-03-23T11:35:27;6.50;;;1.20;;
77191;SDS011;66172;48.526;8.078;2024-03-23T11:40:37;6.40;;;1.20;;
77191;SDS011;66172;48.526;8.078;2024-03-23T11:43:07;6.15;;;0.98;;
77191;SDS011;66172;48.526;8.078;2024-03-23T11:45:42;5.18;;;1.42;;
77191;SDS011;66172;48.526;8.078;2024-03-23T11:50:36;6.50;;;0.90;;
77191;SDS011;66172;48.526;8.078;2024-03-23T11:53:06;5.32;;;1.00;;
77191;SDS011;66172;48.526;8.078;2024-03-23T11:55:58;4.53;;;0.90;;
77191;SDS011;66172;48.526;8.078;2024-03-23T11:58:26;6.90;;;1.25;;
77191;SDS011;66172;48.526;8.078;2024-03-23T12:00:55;5.13;;;1.17;;
77191;SDS011;66172;48.526;8.078;2024-03-23T12:03:23;6.53;;;1.30;;
77191;SDS011;66172;48.526;8.078;2024-03-23T12:05:58;6.78;;;1.02;;
77191;SDS011;66172;48.526;8.078;2024-03-23T12:08:28;6.43;;;1.00;;
77191;SDS011;66172;48.526;8.078;2024-03-23T12:11:09;6.55;;;1.05;;
77191;SDS011;66172;48.526;8.078;2024-03-23T12:13:37;8.00;;;1.20;;
77191;SDS011;66172;48.526;8.078;2024-03-23T12:16:16;5.03;;;0.82;;
77191;SDS011;66172;48.526;8.078;2024-03-23T12:18:46;7.05;;;1.27;;
77191;SDS011;66172;48.526;8.078;2024-03-23T12:21:14;5.75;;;1.27;;
77191;SDS011;66172;48.526;8.078;2024-03-23T12:23:42;3.88;;;0.90;;
77191;SDS011;66172;48.526;8.078;2024-03-23T12:26:10;5.50;;;0.90;;
77191;SDS011;66172;48.526;8.078;2024-03-23T12:28:37;5.45;;;1.10;;
77191;SDS011;66172;48.526;8.078;2024-03-23T12:31:04;7.43;;;1.30;;
77191;SDS011;66172;48.526;8.078;2024-03-23T12:33:31;5.78;;;1.17;;
77191;SDS011;66172;48.526;8.078;2024-03-23T12:35:58;8.77;;;1.30;;
77191;SDS011;66172;48.526;8.078;2024-03-23T12:38:24;6.70;;;1.07;;
77191;SDS011;66172;48.526;8.078;2024-03-23T12:40:50;6.45;;;1.10;;
77191;SDS011;66172;48.526;8.078;2024-03-23T12:43:16;7.65;;;1.60;;
77191;SDS011;66172;48.526;8.078;2024-03-23T12:45:49;8.32;;;1.73;;
77191;SDS011;66172;48.526;8.078;2024-03-23T12:48:18;7.32;;;1.35;;
77191;SDS011;66172;48.526;8.078;2024-03-23T12:50:44;6.00;;;1.20;;
77191;SDS011;66172;48.526;8.078;2024-03-23T12:53:10;6.65;;;0.98;;
77191;SDS011;66172;48.526;8.078;2024-03-23T12:55:36;6.45;;;1.23;;
77191;SDS011;66172;48.526;8.078;2024-03-23T12:58:02;6.18;;;1.20;;
77191;SDS011;66172;48.526;8.078;2024-03-23T13:00:28;5.07;;;0.70;;
77191;SDS011;66172;48.526;8.078;2024-03-23T13:02:54;5.70;;;0.80;;
77191;SDS011;66172;48.526;8.078;2024-03-23T13:05:20;5.03;;;0.60;;
77191;SDS011;66172;48.526;8.078;2024-03-23T13:07:46;3.55;;;0.50;;
77191;SDS011;66172;48.526;8.078;2024-03-23T13:10:12;2.80;;;0.30;;
77191;SDS011;66172;48.526;8.078;2024-03-23T13:12:38;3.60;;;0.70;;
77191;SDS011;66172;48.526;8.078;2024-03-23T13:15:05;3.22;;;0.40;;
77191;SDS011;66172;48.526;8.078;2024-03-23T13:17:31;2.90;;;0.40;;
77191;SDS011;66172;48.526;8.078;2024-03-23T13:19:57;8.80;;;0.83;;
77191;SDS011;66172;48.526;8.078;2024-03-23T13:22:22;3.78;;;0.40;;
77191;SDS011;66172;48.526;8.078;2024-03-23T13:24:49;5.55;;;1.00;;
77191;SDS011;66172;48.526;8.078;2024-03-23T13:27:15;4.10;;;0.98;;
77191;SDS011;66172;48.526;8.078;2024-03-23T13:29:41;4.63;;;0.50;;
77191;SDS011;66172;48.526;8.078;2024-03-23T13:32:07;4.22;;;0.60;;
77191;SDS011;66172;48.526;8.078;2024-03-23T13:34:33;5.28;;;0.60;;
77191;SDS011;66172;48.526;8.078;2024-03-23T13:37:00;4.95;;;1.10;;
77191;SDS011;66172;48.526;8.078;2024-03-23T13:39:26;5.20;;;0.60;;
77191;SDS011;66172;48.526;8.078;2024-03-23T13:41:55;4.75;;;0.50;;
77191;SDS011;66172;48.526;8.078;2024-03-23T13:44:21;4.53;;;0.50;;
77191;SDS011;66172;48.526;8.078;2024-03-23T13:46:47;4.05;;;0.50;;
77191;SDS011;66172;48.526;8.078;2024-03-23T13:52:00;6.33;;;0.60;;
77191;SDS011;66172;48.526;8.078;2024-03-23T13:54:26;6.05;;;0.70;;
77191;SDS011;66172;48.526;8.078;2024-03-23T13:56:52;5.35;;;0.80;;
77191;SDS011;66172;48.526;8.078;2024-03-23T13:59:23;6.93;;;1.17;;
77191;SDS011;66172;48.526;8.078;2024-03-23T14:01:49;5.80;;;0.90;;
77191;SDS011;66172;48.526;8.078;2024-03-23T14:04:18;4.00;;;0.50;;
77191;SDS011;66172;48.526;8.078;2024-03-23T14:06:48;4.38;;;0.60;;
77191;SDS011;66172;48.526;8.078;2024-03-23T14:09:14;5.10;;;0.45;;
77191;SDS011;66172;48.526;8.078;2024-03-23T14:11:41;3.65;;;0.50;;
77191;SDS011;66172;48.526;8.078;2024-03-23T14:14:08;5.37;;;0.63;;
77191;SDS011;66172;48.526;8.078;2024-03-23T14:16:34;4.15;;;0.65;;
77191;SDS011;66172;48.526;8.078;2024-03-23T14:19:00;3.97;;;0.40;;
77191;SDS011;66172;48.526;8.078;2024-03-23T14:21:26;6.65;;;0.68;;
77191;SDS011;66172;48.526;8.078;2024-03-23T14:23:52;3.80;;;0.50;;
77191;SDS011;66172;48.526;8.078;2024-03-23T14:26:20;3.75;;;0.57;;
77191;SDS011;66172;48.526;8.078;2024-03-23T14:28:46;6.05;;;0.50;;
77191;SDS011;66172;48.526;8.078;2024-03-23T14:31:12;4.43;;;0.50;;
77191;SDS011;66172;48.526;8.078;2024-03-23T14:33:38;5.23;;;0.60;;
77191;SDS011;66172;48.526;8.078;2024-03-23T14:36:10;4.60;;;0.50;;
77191;SDS011;66172;48.526;8.078;2024-03-23T14:38:37;3.92;;;0.50;;
77191;SDS011;66172;48.526;8.078;2024-03-23T14:41:03;3.15;;;0.50;;
77191;SDS011;66172;48.526;8.078;2024-03-23T14:43:30;3.90;;;0.40;;
77191;SDS011;66172;48.526;8.078;2024-03-23T14:46:08;4.10;;;0.30;;
77191;SDS011;66172;48.526;8.078;2024-03-23T14:48:35;3.97;;;0.30;;
77191;SDS011;66172;48.526;8.078;2024-03-23T14:51:02;3.30;;;0.30;;
77191;SDS011;66172;48.526;8.078;2024-03-23T14:53:30;4.60;;;1.13;;
77191;SDS011;66172;48.526;8.078;2024-03-23T14:55:57;4.17;;;0.87;;
77191;SDS011;66172;48.526;8.078;2024-03-23T14:58:23;3.85;;;0.55;;
77191;SDS011;66172;48.526;8.078;2024-03-23T15:00:50;3.20;;;0.50;;
77191;SDS011;66172;48.526;8.078;2024-03-23T15:03:17;2.50;;;0.38;;
77191;SDS011;66172;48.526;8.078;2024-03-23T15:05:53;4.35;;;0.50;;
77191;SDS011;66172;48.526;8.078;2024-03-23T15:08:20;3.50;;;0.43;;
77191;SDS011;66172;48.526;8.078;2024-03-23T15:10:47;3.30;;;0.38;;
77191;SDS011;66172;48.526;8.078;2024-03-23T15:13:13;5.03;;;0.40;;
77191;SDS011;66172;48.526;8.078;2024-03-23T15:15:43;5.25;;;0.90;;
77191;SDS011;66172;48.526;8.078;2024-03-23T15:18:11;3.03;;;0.40;;
77191;SDS011;66172;48.526;8.078;2024-03-23T15:21:00;3.57;;;0.43;;
77191;SDS011;66172;48.526;8.078;2024-03-23T15:23:33;3.55;;;0.40;;
77191;SDS011;66172;48.526;8.078;2024-03-23T15:26:00;4.93;;;0.60;;
77191;SDS011;66172;48.526;8.078;2024-03-23T15:28:26;5.20;;;0.50;;
77191;SDS011;66172;48.526;8.078;2024-03-23T15:31:03;4.40;;;0.40;;
77191;SDS011;66172;48.526;8.078;2024-03-23T15:33:30;3.60;;;0.57;;
77191;SDS011;66172;48.526;8.078;2024-03-23T15:35:59;4.30;;;0.40;;
77191;SDS011;66172;48.526;8.078;2024-03-23T15:38:25;3.85;;;0.30;;
77191;SDS011;66172;48.526;8.078;2024-03-23T15:40:51;5.97;;;0.70;;
77191;SDS011;66172;48.526;8.078;2024-03-23T15:43:18;4.37;;;0.20;;
77191;SDS011;66172;48.526;8.078;2024-03-23T15:45:44;2.97;;;0.50;;
77191;SDS011;66172;48.526;8.078;2024-03-23T15:48:18;3.78;;;0.40;;
77191;SDS011;66172;48.526;8.078;2024-03-23T15:50:51;2.30;;;0.30;;
77191;SDS011;66172;48.526;8.078;2024-03-23T15:53:21;3.15;;;0.38;;
77191;SDS011;66172;48.526;8.078;2024-03-23T15:56:00;3.27;;;0.40;;
77191;SDS011;66172;48.526;8.078;2024-03-23T15:58:28;3.70;;;0.30;;